Time;durP1;ratioP1;P1;durP2;ratioP2;P2;SDS_P1;SDS_P2;PMS_P1;PMS_P2;Temp;Humidity;BMP_temperature;BMP_pressure;BME280_temperature;BME280_humidity;BME280_pressure;Samples;Min_cycle;Max_cycle;Signal;HPM_P1;HPM_P2
2021/12/26 00:00:03;;;;;;;8.02;3.05;;;-6.50;99.90;;;;;;4949001;29;20491;-79
2021/12/26 00:02:29;;;;;;;12.35;3.50;;;-6.50;99.90;;;;;;4959007;29;20054;-78
2021/12/26 00:04:54;;;;;;;12.05;3.70;;;-6.50;99.90;;;;;;4941752;29;20085;-78
2021/12/26 00:07:21;;;;;;;13.10;3.75;;;-6.50;99.90;;;;;;4959026;29;20040;-78
2021/12/26 00:09:47;;;;;;;7.75;3.05;;;-6.50;99.90;;;;;;4958699;29;20131;-77
2021/12/26 00:12:13;;;;;;;6.95;2.50;;;-6.50;99.90;;;;;;4957431;29;20079;-76
2021/12/26 00:14:40;;;;;;;7.93;2.50;;;-6.50;99.90;;;;;;4958325;29;20086;-76
2021/12/26 00:17:05;;;;;;;9.32;2.85;;;-6.50;99.90;;;;;;4958782;29;20052;-78
2021/12/26 00:19:31;;;;;;;18.42;5.68;;;-6.60;99.90;;;;;;4958791;29;20113;-78
2021/12/26 00:21:57;;;;;;;11.52;3.78;;;-6.60;99.90;;;;;;4958531;29;20130;-75
2021/12/26 00:24:22;;;;;;;18.52;6.40;;;-6.60;99.90;;;;;;4941193;29;20051;-78
2021/12/26 00:26:48;;;;;;;13.20;4.50;;;-6.60;99.90;;;;;;4958251;29;20046;-78
2021/12/26 00:29:13;;;;;;;11.25;3.75;;;-6.60;99.90;;;;;;4958690;29;20130;-77
2021/12/26 00:31:39;;;;;;;10.35;3.20;;;-6.60;99.90;;;;;;4940408;29;20043;-78
2021/12/26 00:34:05;;;;;;;12.00;4.22;;;-6.60;99.90;;;;;;4958504;29;20439;-78
2021/12/26 00:36:31;;;;;;;10.60;2.83;;;-6.60;99.90;;;;;;4958105;28;20505;-78
2021/12/26 00:38:56;;;;;;;8.45;3.13;;;-6.50;99.90;;;;;;4958526;29;20090;-77
2021/12/26 00:41:22;;;;;;;7.90;2.80;;;-6.50;99.90;;;;;;4958053;29;20141;-77
2021/12/26 00:43:48;;;;;;;7.97;2.70;;;-6.60;99.90;;;;;;4958048;29;20039;-78
2021/12/26 00:46:14;;;;;;;6.43;2.25;;;-6.60;99.90;;;;;;4956589;29;20051;-77
2021/12/26 00:48:39;;;;;;;9.00;2.67;;;-6.50;99.90;;;;;;4957836;29;20051;-78
2021/12/26 00:51:05;;;;;;;10.52;3.20;;;-6.60;99.90;;;;;;4941064;29;20069;-78
2021/12/26 00:53:33;;;;;;;10.23;3.33;;;-6.50;99.90;;;;;;4940845;29;20054;-78
2021/12/26 00:55:58;;;;;;;7.68;3.05;;;-6.50;99.90;;;;;;4924702;29;20055;-77
2021/12/26 00:58:24;;;;;;;7.95;2.30;;;-6.50;99.90;;;;;;4956650;29;20047;-77
2021/12/26 01:00:51;;;;;;;6.50;2.40;;;-6.50;99.90;;;;;;4940686;29;20043;-77
2021/12/26 01:03:18;;;;;;;6.38;2.15;;;-6.50;99.90;;;;;;4940434;29;20380;-78
2021/12/26 01:05:49;;;;;;;6.10;2.00;;;-6.50;99.90;;;;;;4956012;28;20050;-77
2021/12/26 01:08:18;;;;;;;5.15;1.80;;;-6.60;99.90;;;;;;4940916;29;20047;-77
2021/12/26 01:10:55;;;;;;;6.70;1.98;;;-6.50;99.90;;;;;;4956349;29;20051;-78
2021/12/26 01:13:34;;;;;;;6.35;2.03;;;-6.50;99.90;;;;;;4940613;29;20051;-77
2021/12/26 01:16:06;;;;;;;4.95;1.80;;;-6.40;99.90;;;;;;4940306;29;20055;-76
2021/12/26 01:18:39;;;;;;;5.72;2.00;;;-6.40;99.90;;;;;;4957351;29;20051;-77
2021/12/26 01:21:21;;;;;;;7.10;1.80;;;-6.30;99.90;;;;;;4940522;29;20403;-76
2021/12/26 01:23:51;;;;;;;4.95;1.88;;;-6.30;99.90;;;;;;4957234;29;20518;-78
2021/12/26 01:26:17;;;;;;;8.18;2.30;;;-6.30;99.90;;;;;;4940380;29;20130;-77
2021/12/26 01:28:43;;;;;;;5.88;1.90;;;-6.30;99.90;;;;;;4957404;29;20054;-77
2021/12/26 01:31:09;;;;;;;5.78;2.33;;;-6.30;99.90;;;;;;4957479;29;20039;-77
2021/12/26 01:33:35;;;;;;;5.35;1.90;;;-6.20;99.90;;;;;;4940035;29;20118;-77
2021/12/26 01:36:02;;;;;;;7.35;1.92;;;-6.10;99.90;;;;;;4936652;29;20067;-77
2021/12/26 01:38:27;;;;;;;5.15;1.83;;;-6.10;99.90;;;;;;4954588;29;20035;-78
2021/12/26 01:40:56;;;;;;;4.53;1.70;;;-6.10;99.90;;;;;;4957426;29;20510;-78
2021/12/26 01:43:26;;;;;;;4.85;1.75;;;-6.10;99.90;;;;;;4939855;29;20043;-77
2021/12/26 01:45:53;;;;;;;4.60;1.65;;;-6.10;99.90;;;;;;4957014;29;20119;-77
2021/12/26 01:48:21;;;;;;;6.30;1.92;;;-6.10;99.90;;;;;;4940273;29;20407;-78
2021/12/26 01:50:49;;;;;;;7.72;2.17;;;-6.10;99.90;;;;;;4956616;29;20039;-78
2021/12/26 01:53:15;;;;;;;3.78;1.60;;;-6.10;99.90;;;;;;4957139;29;20051;-78
2021/12/26 01:55:46;;;;;;;5.45;1.90;;;-6.20;99.90;;;;;;4939462;29;20055;-78
2021/12/26 01:58:22;;;;;;;6.10;2.08;;;-6.20;99.90;;;;;;4956719;29;20483;-78
2021/12/26 02:00:53;;;;;;;4.80;1.65;;;-6.20;99.90;;;;;;4956879;29;20547;-77
2021/12/26 02:03:19;;;;;;;7.90;2.20;;;-6.20;99.90;;;;;;4939635;29;20141;-78
2021/12/26 02:05:44;;;;;;;4.78;1.70;;;-6.30;99.90;;;;;;4939008;29;20051;-77
2021/12/26 02:08:12;;;;;;;6.20;1.80;;;-6.30;99.90;;;;;;4955242;29;20043;-77
2021/12/26 02:10:38;;;;;;;8.20;1.80;;;-6.40;99.90;;;;;;4955647;29;20421;-76
2021/12/26 02:13:04;;;;;;;4.18;1.70;;;-6.30;99.90;;;;;;4939104;29;20039;-77
2021/12/26 02:15:30;;;;;;;7.97;2.20;;;-6.30;99.90;;;;;;4956406;29;20054;-78
2021/12/26 02:17:56;;;;;;;6.10;1.90;;;-6.30;99.90;;;;;;4938272;29;20114;-78
2021/12/26 02:20:29;;;;;;;5.70;2.17;;;-6.30;99.90;;;;;;4956548;29;20127;-78
2021/12/26 02:23:01;;;;;;;5.30;1.83;;;-6.30;99.90;;;;;;4955933;29;20047;-77
2021/12/26 02:28:12;;;;;;;6.38;2.25;;;-6.30;99.90;;;;;;4938976;29;20051;-78
2021/12/26 02:30:37;;;;;;;4.30;1.77;;;-6.40;99.90;;;;;;4938989;29;20055;-77
2021/12/26 02:33:07;;;;;;;4.80;1.85;;;-6.30;99.90;;;;;;4956402;29;20400;-77
2021/12/26 02:35:33;;;;;;;8.88;2.30;;;-6.30;99.90;;;;;;4956109;28;20126;-77
2021/12/26 02:37:59;;;;;;;6.22;2.25;;;-6.40;99.90;;;;;;4955861;29;20478;-77
2021/12/26 02:40:25;;;;;;;10.55;1.90;;;-6.30;99.90;;;;;;4938658;29;20126;-77
2021/12/26 02:42:50;;;;;;;5.95;2.22;;;-6.40;99.90;;;;;;4956174;29;20420;-78
2021/12/26 02:45:17;;;;;;;5.25;2.15;;;-6.30;99.90;;;;;;4938581;29;20062;-75
2021/12/26 02:47:47;;;;;;;4.38;1.80;;;-6.40;99.90;;;;;;4955631;29;20530;-77
2021/12/26 02:50:15;;;;;;;4.53;1.73;;;-6.30;99.90;;;;;;4938612;29;20063;-77
2021/12/26 02:52:42;;;;;;;5.97;2.30;;;-6.30;99.90;;;;;;4938884;29;20415;-77
2021/12/26 02:55:10;;;;;;;5.60;2.22;;;-6.30;99.90;;;;;;4954000;29;20055;-76
2021/12/26 02:57:35;;;;;;;6.28;2.08;;;-6.30;99.90;;;;;;4938797;29;20113;-77
2021/12/26 03:00:09;;;;;;;10.93;2.15;;;-6.40;99.90;;;;;;4955990;29;20043;-77
2021/12/26 03:02:35;;;;;;;7.68;1.95;;;-6.30;99.90;;;;;;4955839;29;20043;-77
2021/12/26 03:05:04;;;;;;;6.50;1.80;;;-6.40;99.90;;;;;;4955825;29;20415;-77
2021/12/26 03:07:30;;;;;;;5.03;1.77;;;-6.40;99.90;;;;;;4955568;29;20047;-77
2021/12/26 03:09:59;;;;;;;8.00;2.20;;;-6.40;99.90;;;;;;4955315;29;20039;-76
2021/12/26 03:12:27;;;;;;;5.63;2.20;;;-6.50;99.90;;;;;;4938103;29;20110;-77
2021/12/26 03:14:52;;;;;;;6.65;2.17;;;-6.50;99.90;;;;;;4955650;29;20127;-77
2021/12/26 03:17:18;;;;;;;4.90;1.80;;;-6.50;99.90;;;;;;4955275;29;20183;-77
2021/12/26 03:19:44;;;;;;;5.40;2.40;;;-6.50;99.90;;;;;;4938273;29;20054;-77
2021/12/26 03:22:10;;;;;;;4.93;1.90;;;-6.60;99.90;;;;;;4955588;29;20050;-77
2021/12/26 03:24:38;;;;;;;9.65;2.05;;;-6.60;99.90;;;;;;4938140;29;20045;-77
2021/12/26 03:27:05;;;;;;;10.00;2.58;;;-6.60;99.90;;;;;;4954912;29;20063;-77
2021/12/26 03:29:32;;;;;;;6.35;2.28;;;-6.70;99.90;;;;;;4955144;28;20066;-76
2021/12/26 03:31:58;;;;;;;6.10;2.20;;;-6.70;99.90;;;;;;4938117;29;20043;-77
2021/12/26 03:34:24;;;;;;;9.07;2.33;;;-6.70;99.90;;;;;;4955445;29;20039;-77
2021/12/26 03:36:52;;;;;;;8.93;2.70;;;-6.70;99.90;;;;;;4955138;29;20396;-77
2021/12/26 03:39:19;;;;;;;5.13;2.28;;;-6.70;99.90;;;;;;4937585;29;20503;-78
2021/12/26 03:41:45;;;;;;;6.68;2.20;;;-6.70;99.90;;;;;;4954965;29;20050;-77
2021/12/26 03:44:12;;;;;;;7.50;2.40;;;-6.70;99.90;;;;;;4954908;29;20047;-78
2021/12/26 03:46:38;;;;;;;7.53;3.00;;;-6.70;99.90;;;;;;4955424;29;20039;-77
2021/12/26 03:49:05;;;;;;;6.10;2.17;;;-6.00;99.90;;;;;;4938145;29;20087;-77
2021/12/26 03:51:33;;;;;;;7.85;2.20;;;-6.70;99.90;;;;;;4955397;29;20070;-77
2021/12/26 03:54:00;;;;;;;10.63;2.40;;;-6.80;99.90;;;;;;4953270;29;20063;-76
2021/12/26 03:56:27;;;;;;;6.68;2.15;;;-6.80;99.90;;;;;;4954989;29;20055;-77
2021/12/26 03:58:53;;;;;;;5.60;2.20;;;-6.80;99.90;;;;;;4953184;29;20059;-77
2021/12/26 04:01:18;;;;;;;5.72;2.10;;;-6.80;99.90;;;;;;4955251;29;20054;-75
2021/12/26 04:03:44;;;;;;;8.63;2.75;;;-6.90;99.90;;;;;;4955283;29;20056;-75
2021/12/26 04:06:09;;;;;;;7.72;2.30;;;-6.90;99.90;;;;;;4954923;29;20057;-76
2021/12/26 04:08:35;;;;;;;7.68;2.50;;;-6.90;99.90;;;;;;4937804;29;20075;-76
2021/12/26 04:11:01;;;;;;;6.68;2.45;;;-6.90;99.90;;;;;;4955175;29;20043;-77
2021/12/26 04:13:27;;;;;;;8.85;2.47;;;-6.80;99.90;;;;;;4937154;29;20054;-77
2021/12/26 04:15:52;;;;;;;9.18;2.80;;;-6.90;99.90;;;;;;4955029;29;20094;-76
2021/12/26 04:18:19;;;;;;;6.80;2.92;;;-6.90;99.90;;;;;;4955159;29;20074;-76
2021/12/26 04:20:45;;;;;;;6.15;2.40;;;-7.20;99.90;;;;;;4937678;29;20409;-77
2021/12/26 04:23:14;;;;;;;7.20;2.35;;;-6.80;99.90;;;;;;4955005;29;20039;-75
2021/12/26 04:25:41;;;;;;;6.65;2.50;;;-6.80;99.90;;;;;;4937478;29;20050;-74
2021/12/26 04:28:07;;;;;;;6.43;2.35;;;-6.80;99.90;;;;;;4955051;29;20391;-76
2021/12/26 04:30:34;;;;;;;6.18;2.30;;;-6.90;99.90;;;;;;4937085;29;20384;-77
2021/12/26 04:33:01;;;;;;;7.15;2.53;;;-6.80;99.90;;;;;;4954959;29;20055;-74
2021/12/26 04:35:27;;;;;;;5.60;2.13;;;-6.80;99.90;;;;;;4954627;28;20166;-76
2021/12/26 04:37:53;;;;;;;5.70;2.08;;;-6.80;99.90;;;;;;4937337;29;20060;-76
2021/12/26 04:40:19;;;;;;;6.97;2.55;;;-6.90;99.90;;;;;;4954520;28;20051;-76
2021/12/26 04:42:46;;;;;;;6.82;2.38;;;-6.90;99.90;;;;;;4958402;29;20039;-76
2021/12/26 04:45:14;;;;;;;7.13;2.72;;;-6.90;99.90;;;;;;4940217;29;20178;-77
2021/12/26 04:47:40;;;;;;;5.80;2.70;;;-6.90;99.90;;;;;;4958454;29;20056;-73
2021/12/26 04:50:11;;;;;;;8.73;2.65;;;-6.90;99.90;;;;;;4924467;29;20070;-76
2021/12/26 04:52:37;;;;;;;8.13;2.35;;;-6.90;99.90;;;;;;4958037;29;20050;-75
2021/12/26 04:55:05;;;;;;;6.22;2.40;;;-6.90;99.90;;;;;;4957982;29;20043;-77
2021/12/26 04:57:31;;;;;;;6.50;2.50;;;-6.90;99.90;;;;;;4958249;29;20123;-76
2021/12/26 04:59:57;;;;;;;9.45;2.50;;;-6.90;99.90;;;;;;4958141;29;20043;-76
2021/12/26 05:02:23;;;;;;;9.02;3.10;;;-6.90;99.90;;;;;;4940572;29;20451;-77
2021/12/26 05:04:49;;;;;;;7.32;2.67;;;-6.90;99.90;;;;;;4958077;29;20588;-76
2021/12/26 05:07:14;;;;;;;8.80;2.90;;;-6.90;99.90;;;;;;4940530;29;20054;-76
2021/12/26 05:09:41;;;;;;;7.70;2.53;;;-6.90;99.90;;;;;;4957726;29;20055;-76
2021/12/26 05:12:08;;;;;;;7.55;2.72;;;-6.90;99.90;;;;;;4940707;29;20047;-76
2021/12/26 05:14:33;;;;;;;6.30;2.45;;;-7.00;99.90;;;;;;4940964;29;20492;-76
2021/12/26 05:16:59;;;;;;;7.35;3.08;;;-7.00;99.90;;;;;;4939850;29;20085;-75
2021/12/26 05:19:24;;;;;;;6.25;2.42;;;-7.00;99.90;;;;;;4957669;29;20447;-76
2021/12/26 05:21:50;;;;;;;7.32;2.78;;;-7.00;99.90;;;;;;4940474;29;20444;-76
2021/12/26 05:24:16;;;;;;;11.23;2.88;;;-5.30;99.90;;;;;;4957403;29;20039;-76
2021/12/26 05:26:41;;;;;;;7.38;3.00;;;-7.00;99.90;;;;;;4940730;29;20051;-76
2021/12/26 05:29:07;;;;;;;8.38;2.70;;;-7.00;99.90;;;;;;4940260;29;20051;-76
2021/12/26 05:31:32;;;;;;;9.15;2.97;;;-7.00;99.90;;;;;;4940128;29;20050;-77
2021/12/26 05:33:58;;;;;;;11.30;3.10;;;-7.00;99.90;;;;;;4955788;29;20184;-76
2021/12/26 05:36:25;;;;;;;9.50;3.30;;;-7.00;99.90;;;;;;4956993;28;20571;-74
2021/12/26 05:38:50;;;;;;;7.25;2.75;;;-6.90;99.90;;;;;;4957465;29;20126;-76
2021/12/26 05:41:16;;;;;;;8.68;3.00;;;-6.90;99.90;;;;;;4957460;29;20075;-76
2021/12/26 05:43:42;;;;;;;9.88;3.28;;;-6.90;99.90;;;;;;4940153;29;20055;-75
2021/12/26 05:46:08;;;;;;;7.82;2.67;;;-6.90;99.90;;;;;;4939826;29;20550;-76
2021/12/26 05:48:34;;;;;;;8.23;3.28;;;-6.90;99.90;;;;;;4956770;29;20031;-76
2021/12/26 05:51:00;;;;;;;6.85;2.85;;;-6.90;99.90;;;;;;4955785;29;20106;-76
2021/12/26 05:53:25;;;;;;;8.32;3.00;;;-6.90;99.90;;;;;;4955544;28;20452;-76
2021/12/26 05:55:51;;;;;;;9.02;3.28;;;-6.80;99.90;;;;;;4956762;29;20061;-76
2021/12/26 05:58:17;;;;;;;9.98;3.08;;;-6.80;99.90;;;;;;4939731;29;20118;-76
2021/12/26 06:00:42;;;;;;;8.02;3.03;;;-6.80;99.90;;;;;;4939666;29;20090;-74
2021/12/26 06:03:08;;;;;;;6.55;2.78;;;-6.80;99.90;;;;;;4956726;29;20047;-76
2021/12/26 06:05:34;;;;;;;9.95;3.15;;;-6.80;99.90;;;;;;4956451;29;20062;-76
2021/12/26 06:07:59;;;;;;;9.95;3.20;;;-6.70;99.90;;;;;;4956899;29;20130;-76
2021/12/26 06:10:25;;;;;;;7.68;3.30;;;-6.80;99.90;;;;;;4956869;29;20043;-76
2021/12/26 06:12:52;;;;;;;7.45;2.83;;;-6.70;99.90;;;;;;4939604;29;20055;-76
2021/12/26 06:15:18;;;;;;;8.48;3.30;;;-6.70;99.90;;;;;;4956419;29;20491;-76
2021/12/26 06:17:44;;;;;;;8.43;3.25;;;-6.70;99.90;;;;;;4939416;29;20256;-76
2021/12/26 06:20:14;;;;;;;8.27;3.08;;;-6.70;99.90;;;;;;4938671;29;20066;-76
2021/12/26 06:22:45;;;;;;;8.15;3.45;;;-6.70;99.90;;;;;;4939073;29;20093;-76
2021/12/26 06:25:12;;;;;;;8.55;3.58;;;-5.20;99.90;;;;;;4954464;29;20063;-76
2021/12/26 06:27:38;;;;;;;7.43;3.10;;;-6.70;99.90;;;;;;4956237;29;20051;-78
2021/12/26 06:30:08;;;;;;;9.85;4.07;;;-6.70;99.90;;;;;;4939057;29;20051;-76
2021/12/26 06:32:34;;;;;;;8.50;2.90;;;-6.70;99.90;;;;;;4938300;29;20055;-78
2021/12/26 06:35:01;;;;;;;8.13;3.35;;;-6.70;99.90;;;;;;4956163;29;20051;-78
2021/12/26 06:37:30;;;;;;;8.65;3.53;;;-6.70;99.90;;;;;;4922451;29;20055;-78
2021/12/26 06:39:59;;;;;;;8.95;3.13;;;-6.70;99.90;;;;;;4938458;29;20057;-78
2021/12/26 06:42:25;;;;;;;8.73;3.20;;;-6.70;99.90;;;;;;4956266;29;20137;-77
2021/12/26 06:44:51;;;;;;;9.73;3.35;;;-6.70;99.90;;;;;;4955983;29;20117;-78
2021/12/26 06:47:17;;;;;;;9.35;3.20;;;-6.70;99.90;;;;;;4954924;29;20483;-78
2021/12/26 06:49:43;;;;;;;8.73;3.33;;;-6.70;99.90;;;;;;4938487;29;20062;-78
2021/12/26 06:52:09;;;;;;;9.77;3.83;;;-6.70;99.90;;;;;;4938384;29;20043;-77
2021/12/26 06:54:36;;;;;;;9.27;3.88;;;-6.70;99.90;;;;;;4955807;29;20055;-77
2021/12/26 06:57:03;;;;;;;9.45;3.60;;;-6.70;99.90;;;;;;4956086;29;20053;-76
2021/12/26 06:59:29;;;;;;;10.63;4.38;;;-6.70;99.90;;;;;;4955647;29;20491;-76
2021/12/26 07:01:54;;;;;;;10.88;3.53;;;-6.80;99.90;;;;;;4954648;29;20097;-73
2021/12/26 07:04:20;;;;;;;9.38;3.55;;;-6.70;99.90;;;;;;4955458;28;20066;-76
2021/12/26 07:06:46;;;;;;;9.63;3.40;;;-6.70;99.90;;;;;;4938547;29;20395;-76
2021/12/26 07:09:12;;;;;;;8.55;3.60;;;-6.70;99.90;;;;;;4953779;29;20047;-76
2021/12/26 07:11:38;;;;;;;9.23;3.58;;;-6.70;99.90;;;;;;4938532;29;20102;-76
2021/12/26 07:14:03;;;;;;;10.07;3.80;;;-6.70;99.90;;;;;;4938385;29;20051;-76
2021/12/26 07:16:29;;;;;;;7.03;3.42;;;-6.10;99.90;;;;;;4955533;29;20109;-76
2021/12/26 07:18:55;;;;;;;8.48;3.58;;;-6.70;99.90;;;;;;4955740;29;20039;-76
2021/12/26 07:21:21;;;;;;;8.10;3.40;;;-6.70;99.90;;;;;;4955681;29;20502;-76
2021/12/26 07:23:47;;;;;;;8.80;3.45;;;-6.70;99.90;;;;;;4953314;29;20082;-76
2021/12/26 07:26:12;;;;;;;9.35;3.63;;;-6.70;99.90;;;;;;4955416;29;20047;-76
2021/12/26 07:28:38;;;;;;;8.95;3.63;;;-6.70;99.90;;;;;;4937926;29;20086;-76
2021/12/26 07:31:04;;;;;;;9.27;4.10;;;-6.70;99.90;;;;;;4955518;29;20054;-76
2021/12/26 07:33:30;;;;;;;7.57;3.53;;;-6.70;99.90;;;;;;4938334;29;20561;-75
2021/12/26 07:35:55;;;;;;;10.38;3.95;;;-6.70;99.90;;;;;;4955046;28;20098;-76
2021/12/26 07:38:21;;;;;;;8.18;3.47;;;-6.70;99.90;;;;;;4955444;29;20404;-74
2021/12/26 07:40:47;;;;;;;9.05;4.03;;;-6.80;99.90;;;;;;4937368;29;20046;-76
2021/12/26 07:43:14;;;;;;;9.43;3.88;;;-6.80;99.90;;;;;;4953828;29;20047;-76
2021/12/26 07:45:40;;;;;;;12.07;3.95;;;-6.70;99.90;;;;;;4955418;29;20046;-78
2021/12/26 07:48:06;;;;;;;11.52;4.10;;;-6.70;99.90;;;;;;4922281;29;20492;-76
2021/12/26 07:50:31;;;;;;;10.13;4.07;;;-6.70;99.90;;;;;;4937989;29;20046;-78
2021/12/26 07:53:04;;;;;;;10.05;3.92;;;-6.70;99.90;;;;;;4955340;29;20428;-78
2021/12/26 07:55:30;;;;;;;10.40;4.25;;;-6.80;99.90;;;;;;4954846;29;20047;-77
2021/12/26 07:57:56;;;;;;;11.95;4.45;;;-6.80;99.90;;;;;;4955117;29;20079;-78
2021/12/26 08:00:21;;;;;;;10.30;4.10;;;-6.80;99.90;;;;;;4954999;29;20480;-77
2021/12/26 08:02:47;;;;;;;10.18;4.30;;;-6.80;99.90;;;;;;4955040;29;20160;-78
2021/12/26 08:05:14;;;;;;;9.85;4.00;;;-6.80;99.90;;;;;;4955344;29;20079;-77
2021/12/26 08:07:40;;;;;;;13.68;6.88;;;-6.80;99.90;;;;;;4955329;29;20387;-78
2021/12/26 08:10:06;;;;;;;9.80;4.50;;;-6.80;99.90;;;;;;4955071;29;20472;-78
2021/12/26 08:12:32;;;;;;;11.50;4.45;;;-6.70;99.90;;;;;;4952665;29;20059;-79
2021/12/26 08:15:01;;;;;;;10.23;4.15;;;-6.70;99.90;;;;;;4954908;28;20043;-78
2021/12/26 08:17:30;;;;;;;11.65;4.50;;;-6.70;99.90;;;;;;4925656;29;20502;-78
2021/12/26 08:19:58;;;;;;;14.02;4.75;;;-6.70;99.90;;;;;;4941797;29;20555;-75
2021/12/26 08:22:24;;;;;;;10.82;4.43;;;-6.70;99.90;;;;;;4926269;29;20051;-76
2021/12/26 08:24:50;;;;;;;10.13;4.57;;;-6.70;99.90;;;;;;4941200;29;20491;-76
2021/12/26 08:27:16;;;;;;;8.90;4.00;;;-6.50;99.90;;;;;;4958266;29;20175;-73
2021/12/26 08:29:42;;;;;;;8.93;3.95;;;-6.70;99.90;;;;;;4958798;29;20156;-76
2021/12/26 08:32:12;;;;;;;10.43;4.40;;;-6.60;99.90;;;;;;4958763;29;20464;-74
2021/12/26 08:34:39;;;;;;;9.68;3.95;;;-6.60;99.90;;;;;;4958555;29;20083;-76
2021/12/26 08:37:05;;;;;;;10.73;4.78;;;-6.70;99.90;;;;;;4940499;29;20047;-74
2021/12/26 08:39:36;;;;;;;12.60;4.32;;;-6.60;99.90;;;;;;4958318;29;20110;-73
2021/12/26 08:42:03;;;;;;;12.10;5.33;;;-6.60;99.90;;;;;;4958584;29;20047;-78
2021/12/26 08:44:28;;;;;;;16.25;7.22;;;-6.60;99.90;;;;;;4958050;29;20399;-75
2021/12/26 08:46:54;;;;;;;14.45;7.15;;;-6.50;99.90;;;;;;4958229;29;20054;-74
2021/12/26 08:49:21;;;;;;;13.50;5.68;;;-6.50;99.90;;;;;;4958075;29;20487;-75
2021/12/26 08:51:47;;;;;;;13.20;5.85;;;-6.40;99.90;;;;;;4957955;29;20058;-75
2021/12/26 08:54:14;;;;;;;13.63;5.00;;;-6.40;99.90;;;;;;4958148;29;20090;-76
2021/12/26 08:56:40;;;;;;;11.88;4.95;;;-6.40;99.90;;;;;;4940386;29;20473;-76
2021/12/26 08:59:06;;;;;;;10.40;4.43;;;-6.30;99.90;;;;;;4956107;29;20091;-78
2021/12/26 09:01:32;;;;;;;10.65;4.30;;;-6.30;99.90;;;;;;4958193;29;20086;-76
2021/12/26 09:03:58;;;;;;;10.60;4.47;;;-6.30;99.90;;;;;;4940793;29;20071;-75
2021/12/26 09:06:24;;;;;;;11.23;4.50;;;-6.30;99.90;;;;;;4958012;29;20123;-75
2021/12/26 09:08:50;;;;;;;13.27;5.60;;;-6.30;99.90;;;;;;4957785;29;20403;-77
2021/12/26 09:11:17;;;;;;;10.57;4.78;;;-6.20;99.90;;;;;;4957705;29;20135;-76
2021/12/26 09:13:44;;;;;;;10.68;4.40;;;-6.10;99.90;;;;;;4940733;29;20110;-76
2021/12/26 09:16:09;;;;;;;9.00;3.97;;;-6.10;99.90;;;;;;4957104;29;20163;-76
2021/12/26 09:18:35;;;;;;;10.25;4.78;;;-6.10;99.90;;;;;;4940241;29;20121;-75
2021/12/26 09:21:01;;;;;;;11.38;4.22;;;-6.00;99.90;;;;;;4940011;29;20494;-77
2021/12/26 09:23:27;;;;;;;9.13;4.45;;;-5.90;99.90;;;;;;4940026;29;20130;-74
2021/12/26 09:25:52;;;;;;;8.85;4.20;;;-5.90;99.90;;;;;;4939560;29;20070;-70
2021/12/26 09:28:18;;;;;;;11.18;4.25;;;-5.80;99.90;;;;;;4955753;28;20050;-75
2021/12/26 09:30:44;;;;;;;9.45;4.28;;;-5.80;99.90;;;;;;4938871;29;20055;-77
2021/12/26 09:33:09;;;;;;;13.15;7.07;;;-5.70;99.90;;;;;;4956894;29;20039;-73
2021/12/26 09:35:36;;;;;;;10.98;4.63;;;-5.70;99.90;;;;;;4957075;29;20050;-71
2021/12/26 09:38:02;;;;;;;9.55;4.28;;;-5.60;99.90;;;;;;4956767;29;20052;-85
2021/12/26 09:40:27;;;;;;;9.75;3.67;;;-5.60;99.90;;;;;;4939577;29;20130;-75
2021/12/26 09:42:53;;;;;;;10.63;4.70;;;-5.50;99.90;;;;;;4957634;29;20085;-75
2021/12/26 09:45:19;;;;;;;8.43;3.33;;;-5.50;99.90;;;;;;4957245;29;20403;-75
2021/12/26 09:47:50;;;;;;;10.30;3.97;;;-5.40;99.90;;;;;;4956600;29;20051;-75
2021/12/26 09:50:17;;;;;;;8.55;3.63;;;-5.40;99.90;;;;;;4957022;29;20131;-75
2021/12/26 09:52:44;;;;;;;10.55;4.70;;;-5.30;99.90;;;;;;4938993;29;20055;-75
2021/12/26 09:55:12;;;;;;;11.30;4.30;;;-5.30;99.90;;;;;;4956905;29;20039;-72
2021/12/26 09:57:38;;;;;;;9.23;3.70;;;-5.20;99.90;;;;;;4939192;29;20051;-77
2021/12/26 10:00:38;;;;;;;8.50;3.65;;;-5.10;99.90;;;;;;4956848;29;20117;-75
2021/12/26 10:03:22;;;;;;;9.23;3.95;;;-5.10;99.90;;;;;;4896724;29;20113;-74
2021/12/26 10:06:12;;;;;;;9.80;4.07;;;-5.00;99.90;;;;;;4897606;29;20135;-75
2021/12/26 10:09:01;;;;;;;10.23;4.63;;;-4.90;99.90;;;;;;4897461;29;20070;-74
2021/12/26 10:11:42;;;;;;;9.43;3.92;;;-4.90;99.90;;;;;;4897622;29;20374;-74
2021/12/26 10:14:16;;;;;;;14.60;6.65;;;-4.80;99.90;;;;;;4897434;29;20096;-76
2021/12/26 10:16:45;;;;;;;14.45;5.95;;;-4.70;99.90;;;;;;4881333;29;20148;-71
2021/12/26 10:19:12;;;;;;;9.23;3.45;;;-4.70;99.90;;;;;;4896784;29;20422;-76
2021/12/26 10:21:40;;;;;;;9.32;4.40;;;-4.60;99.90;;;;;;4897367;29;20045;-75
2021/12/26 10:24:12;;;;;;;10.10;4.38;;;-4.60;99.90;;;;;;4897297;29;20079;-76
2021/12/26 10:26:45;;;;;;;9.73;4.10;;;-4.50;99.90;;;;;;4897231;29;20091;-75
2021/12/26 10:29:16;;;;;;;9.68;3.55;;;-4.40;99.90;;;;;;4897321;29;20128;-76
2021/12/26 10:31:46;;;;;;;10.13;3.92;;;-4.30;99.90;;;;;;4897090;29;20426;-76
2021/12/26 10:34:19;;;;;;;8.45;3.90;;;-4.30;99.90;;;;;;4896562;29;20095;-73
2021/12/26 10:36:46;;;;;;;12.00;4.35;;;-4.20;99.90;;;;;;4896786;29;20065;-82
2021/12/26 10:39:17;;;;;;;9.88;3.83;;;-4.20;99.90;;;;;;4940582;28;20051;-74
2021/12/26 10:41:49;;;;;;;11.50;3.75;;;-4.10;99.90;;;;;;4956427;29;20046;-80
2021/12/26 10:44:28;;;;;;;10.43;4.25;;;-4.00;99.90;;;;;;4954228;29;20062;-76
2021/12/26 10:47:00;;;;;;;14.25;4.45;;;-4.00;99.90;;;;;;4939283;29;20194;-74
2021/12/26 10:49:33;;;;;;;10.57;4.45;;;-3.90;99.90;;;;;;4956282;29;20055;-80
2021/12/26 10:52:04;;;;;;;9.75;3.80;;;-3.80;99.90;;;;;;4938726;29;20055;-77
2021/12/26 10:54:31;;;;;;;10.07;4.22;;;-2.30;99.90;;;;;;4939184;29;20043;-86
2021/12/26 10:57:13;;;;;;;10.90;4.88;;;-3.70;99.90;;;;;;4939028;29;20098;-83
2021/12/26 11:02:50;;;;;;;10.35;4.10;;;-3.50;99.90;;;;;;4957300;29;20128;-88
2021/12/26 11:08:57;;;;;;;9.00;4.00;;;-3.40;99.90;;;;;;4861125;29;20117;-88
2021/12/26 11:11:39;;;;;;;8.25;3.70;;;-3.30;99.90;;;;;;4860625;29;20089;-82
2021/12/26 11:14:07;;;;;;;12.00;4.60;;;-3.70;99.90;;;;;;4859193;29;20081;-83
2021/12/26 11:16:51;;;;;;;9.18;3.63;;;-2.90;99.90;;;;;;4861595;29;20057;-84
2021/12/26 11:20:12;;;;;;;9.57;4.03;;;-3.10;99.90;;;;;;4866717;29;20056;-83
2021/12/26 11:22:38;;;;;;;8.63;3.42;;;-2.30;99.90;;;;;;4861550;29;20096;-84
2021/12/26 11:25:05;;;;;;;10.75;4.00;;;-2.80;99.90;;;;;;4861724;29;20061;-84
2021/12/26 11:31:25;;;;;;;9.20;3.33;;;-2.70;99.90;;;;;;4880606;29;20076;-84
2021/12/26 11:34:09;;;;;;;8.98;3.10;;;-2.60;99.90;;;;;;4862310;29;20436;-84
2021/12/26 11:36:45;;;;;;;12.05;3.60;;;-3.70;99.90;;;;;;4861860;29;20425;-84
2021/12/26 11:39:11;;;;;;;8.70;3.70;;;-1.40;99.90;;;;;;4877037;29;20049;-84
2021/12/26 11:41:51;;;;;;;11.80;3.92;;;-0.60;99.90;;;;;;4861626;29;20568;-83
2021/12/26 11:44:38;;;;;;;7.97;3.15;;;-0.50;99.90;;;;;;4862143;29;20053;-84
2021/12/26 11:47:17;;;;;;;9.85;3.70;;;-2.30;99.90;;;;;;4918766;29;20052;-84
2021/12/26 11:50:12;;;;;;;10.40;3.80;;;-0.80;99.90;;;;;;4919445;29;20472;-84
2021/12/26 11:52:56;;;;;;;8.55;2.92;;;-0.50;99.90;;;;;;4887325;29;20095;-84
2021/12/26 11:59:19;;;;;;;12.38;4.00;;;-2.10;99.90;;;;;;4903342;29;20401;-83
2021/12/26 12:01:49;;;;;;;8.50;3.22;;;-2.00;99.90;;;;;;4903000;29;20539;-83
2021/12/26 12:04:17;;;;;;;9.88;3.97;;;0.50;99.90;;;;;;4887345;29;20058;-83
2021/12/26 12:06:46;;;;;;;8.02;3.45;;;-0.80;99.90;;;;;;4903470;29;20094;-84
2021/12/26 12:09:50;;;;;;;8.65;3.47;;;-2.00;99.90;;;;;;4902107;29;20112;-83
2021/12/26 12:12:40;;;;;;;10.05;3.50;;;-1.40;99.90;;;;;;4914830;29;20108;-82
2021/12/26 12:15:15;;;;;;;8.75;3.85;;;-1.80;99.90;;;;;;4915475;28;20400;-83
2021/12/26 12:17:44;;;;;;;10.57;4.32;;;-0.90;99.90;;;;;;4887075;29;20050;-84
2021/12/26 12:20:21;;;;;;;9.82;4.10;;;-0.30;99.90;;;;;;4887225;29;20095;-83
2021/12/26 12:23:08;;;;;;;7.88;3.60;;;-0.50;99.90;;;;;;4918460;29;20052;-84
2021/12/26 12:25:34;;;;;;;9.95;3.72;;;-1.40;99.90;;;;;;4886288;29;20084;-84
2021/12/26 12:31:38;;;;;;;9.52;3.25;;;-2.40;99.90;;;;;;4936356;29;20058;-84
2021/12/26 12:34:22;;;;;;;8.50;3.35;;;-0.50;99.90;;;;;;4938506;29;20055;-83
2021/12/26 12:37:33;;;;;;;8.23;3.20;;;-0.20;99.90;;;;;;4905708;29;20056;-83
2021/12/26 12:40:29;;;;;;;8.82;3.65;;;0.90;99.90;;;;;;4906776;29;20048;-83
2021/12/26 12:43:16;;;;;;;11.70;3.88;;;-1.50;99.90;;;;;;4906291;29;20051;-84
2021/12/26 12:46:11;;;;;;;12.60;3.67;;;-0.10;99.90;;;;;;4922004;29;20061;-82
2021/12/26 12:48:46;;;;;;;14.10;5.43;;;-0.60;99.90;;;;;;4922224;29;20058;-83
2021/12/26 12:51:16;;;;;;;10.77;4.95;;;0.10;99.90;;;;;;4906305;29;20448;-81
2021/12/26 12:53:56;;;;;;;12.55;5.00;;;-0.10;99.90;;;;;;4922179;29;20095;-84
2021/12/26 12:56:35;;;;;;;10.68;5.00;;;-0.50;99.90;;;;;;4905787;29;20047;-85
2021/12/26 12:59:51;;;;;;;12.15;5.10;;;-1.40;99.90;;;;;;4921778;29;20044;-82
2021/12/26 13:02:34;;;;;;;11.63;4.25;;;-1.10;99.90;;;;;;4920745;29;20043;-82
2021/12/26 13:08:41;;;;;;;12.18;4.63;;;-2.20;99.90;;;;;;4938896;29;20452;-84
2021/12/26 13:11:12;;;;;;;9.48;4.10;;;0.10;99.90;;;;;;4921665;29;20051;-83
2021/12/26 13:13:39;;;;;;;10.15;3.78;;;0.20;99.90;;;;;;4905870;29;20051;-84
2021/12/26 13:16:11;;;;;;;8.48;3.28;;;-0.20;99.90;;;;;;4922062;29;20161;-82